Time;durP1;ratioP1;P1;durP2;ratioP2;P2;SDS_P1;SDS_P2;PMS_P1;PMS_P2;Temp;Humidity;BMP_temperature;BMP_pressure;BME280_temperature;BME280_humidity;BME280_pressure;Samples;Min_cycle;Max_cycle;Signal;HPM_P1;HPM_P2
2022/11/29 00:02:09;;;;;;;21.50;16.07;;;10.30;99.90;;;;;;4992007;28;20519;-83
2022/11/29 00:04:37;;;;;;;26.27;19.90;;;10.30;99.90;;;;;;4998816;28;20534;-86
2022/11/29 00:07:04;;;;;;;25.00;18.10;;;10.40;99.90;;;;;;4998667;28;20918;-83
2022/11/29 00:09:31;;;;;;;24.23;18.00;;;10.30;99.90;;;;;;4991999;28;20545;-84
2022/11/29 00:12:13;;;;;;;23.60;17.30;;;10.40;99.90;;;;;;4987570;28;20486;-82
2022/11/29 00:14:41;;;;;;;25.10;17.00;;;10.30;99.90;;;;;;4985702;28;20876;-84
2022/11/29 00:17:08;;;;;;;22.60;16.70;;;10.30;99.90;;;;;;4988109;28;20497;-84
2022/11/29 00:19:36;;;;;;;22.40;16.23;;;10.30;99.90;;;;;;5007875;28;20518;-83
2022/11/29 00:22:04;;;;;;;23.77;16.87;;;10.30;99.90;;;;;;4996726;28;20453;-83
2022/11/29 00:24:31;;;;;;;25.00;16.03;;;10.30;99.90;;;;;;4983934;28;21029;-84
2022/11/29 00:26:59;;;;;;;19.13;14.93;;;10.30;99.90;;;;;;4982452;28;20478;-83
2022/11/29 00:29:25;;;;;;;21.97;14.80;;;10.30;99.90;;;;;;4983842;28;20467;-84
2022/11/29 00:31:54;;;;;;;20.17;14.90;;;10.30;99.90;;;;;;4987272;28;20987;-83
2022/11/29 00:34:20;;;;;;;20.83;16.00;;;10.30;99.90;;;;;;4999954;28;20544;-84
2022/11/29 00:36:47;;;;;;;22.90;15.10;;;10.30;99.90;;;;;;4999896;28;20889;-83
2022/11/29 00:39:15;;;;;;;21.77;16.80;;;10.30;99.90;;;;;;4999729;28;20456;-84
2022/11/29 00:41:42;;;;;;;17.83;14.13;;;10.30;99.90;;;;;;5000072;28;20462;-84
2022/11/29 00:44:09;;;;;;;17.53;13.00;;;10.30;99.90;;;;;;5001968;28;20454;-85
2022/11/29 00:46:37;;;;;;;15.53;12.13;;;10.30;99.90;;;;;;5002145;28;20481;-84
2022/11/29 00:49:05;;;;;;;14.10;11.20;;;10.30;99.90;;;;;;4995426;28;20459;-85
2022/11/29 00:51:32;;;;;;;13.60;10.20;;;10.30;99.90;;;;;;5013408;28;20541;-85
2022/11/29 00:53:59;;;;;;;15.67;11.63;;;10.30;99.90;;;;;;5013540;28;20477;-86
2022/11/29 00:56:26;;;;;;;15.50;11.60;;;10.30;99.90;;;;;;5011580;28;20465;-85
2022/11/29 00:58:53;;;;;;;14.10;11.30;;;10.30;99.90;;;;;;5011035;28;20517;-84
2022/11/29 01:01:20;;;;;;;16.30;11.17;;;10.30;99.90;;;;;;4996639;28;20462;-85
2022/11/29 01:03:46;;;;;;;14.10;11.37;;;10.30;99.90;;;;;;5000486;28;20466;-84
2022/11/29 01:06:17;;;;;;;11.70;9.67;;;10.40;99.90;;;;;;4992506;28;20547;-85
2022/11/29 01:08:45;;;;;;;14.13;10.47;;;10.40;99.90;;;;;;4991363;28;20530;-85
2022/11/29 01:11:18;;;;;;;15.37;10.30;;;10.40;99.90;;;;;;4991488;28;20827;-85
2022/11/29 01:13:46;;;;;;;13.07;9.47;;;10.40;99.90;;;;;;4997557;28;20530;-86
2022/11/29 01:16:14;;;;;;;14.50;11.33;;;10.40;99.90;;;;;;4996234;28;20915;-86
2022/11/29 01:18:42;;;;;;;13.47;10.40;;;10.40;99.90;;;;;;5009515;28;20903;-86
2022/11/29 01:21:12;;;;;;;13.57;11.50;;;10.40;99.90;;;;;;5010074;28;20501;-86
2022/11/29 01:23:40;;;;;;;13.57;10.23;;;10.40;99.90;;;;;;5010846;28;20489;-86
2022/11/29 01:26:09;;;;;;;14.67;10.63;;;10.40;99.90;;;;;;4999929;28;20536;-84
2022/11/29 01:28:37;;;;;;;12.20;10.53;;;10.40;99.90;;;;;;4982526;28;20462;-85
2022/11/29 01:31:07;;;;;;;13.90;10.87;;;10.40;99.90;;;;;;4988322;28;20454;-85
2022/11/29 01:33:34;;;;;;;19.03;10.40;;;10.40;99.90;;;;;;4988041;28;20451;-84
2022/11/29 01:36:02;;;;;;;15.67;10.50;;;10.40;99.90;;;;;;4993145;28;20583;-85
2022/11/29 01:38:29;;;;;;;17.97;10.90;;;10.40;99.90;;;;;;5005813;28;20494;-85
2022/11/29 01:41:03;;;;;;;14.97;10.20;;;10.40;99.90;;;;;;4993529;28;20892;-86
2022/11/29 01:43:30;;;;;;;18.43;10.37;;;10.40;99.90;;;;;;4986122;28;20561;-85
2022/11/29 01:45:57;;;;;;;18.60;9.30;;;10.30;99.90;;;;;;4992324;28;20546;-83
2022/11/29 01:48:26;;;;;;;20.93;11.37;;;10.20;99.90;;;;;;5006153;28;20525;-85
2022/11/29 01:50:54;;;;;;;21.00;11.63;;;10.20;99.90;;;;;;5003482;28;20936;-85
2022/11/29 01:53:22;;;;;;;23.60;12.53;;;10.20;99.90;;;;;;5001025;28;20530;-84
2022/11/29 01:55:53;;;;;;;29.47;15.47;;;10.10;99.90;;;;;;4993677;28;20480;-85
2022/11/29 01:58:22;;;;;;;26.53;12.83;;;10.10;99.90;;;;;;4987699;28;21005;-85
2022/11/29 02:00:49;;;;;;;33.63;16.07;;;10.10;99.90;;;;;;4987266;28;20458;-84
2022/11/29 02:03:17;;;;;;;22.73;12.27;;;10.10;99.90;;;;;;4986271;28;20541;-85
2022/11/29 02:05:46;;;;;;;26.93;13.67;;;10.10;99.90;;;;;;5003995;28;20481;-85
2022/11/29 02:08:16;;;;;;;23.37;12.17;;;10.10;99.90;;;;;;4998128;28;20514;-85
2022/11/29 02:11:16;;;;;;;28.73;14.83;;;10.10;99.90;;;;;;4988558;28;20455;-84
2022/11/29 02:13:51;;;;;;;37.03;15.80;;;10.20;99.90;;;;;;5005111;28;20484;-85
2022/11/29 02:16:24;;;;;;;24.63;13.03;;;10.00;99.90;;;;;;5001285;28;20506;-84
2022/11/29 02:19:00;;;;;;;32.90;14.93;;;10.10;99.90;;;;;;4989133;28;20477;-84
2022/11/29 02:21:36;;;;;;;32.07;14.67;;;10.10;99.90;;;;;;4989712;28;20441;-84
2022/11/29 02:24:30;;;;;;;37.07;16.27;;;10.10;99.90;;;;;;5008712;28;20553;-84
2022/11/29 02:27:13;;;;;;;31.87;14.77;;;10.10;99.90;;;;;;5008003;28;20469;-84
2022/11/29 02:30:14;;;;;;;30.70;14.30;;;10.10;99.90;;;;;;5009233;28;20512;-85
2022/11/29 02:33:12;;;;;;;31.03;14.87;;;10.20;99.90;;;;;;4998220;28;20530;-85
2022/11/29 02:35:55;;;;;;;30.47;14.50;;;10.10;99.90;;;;;;4991267;28;20583;-82
2022/11/29 02:38:35;;;;;;;30.20;13.57;;;10.20;99.90;;;;;;5003021;28;20561;-85
2022/11/29 02:41:22;;;;;;;31.43;15.17;;;10.20;99.90;;;;;;5009410;28;20525;-84
2022/11/29 02:44:07;;;;;;;27.07;14.53;;;10.20;99.90;;;;;;5009919;28;20552;-84
2022/11/29 02:46:54;;;;;;;22.77;12.37;;;10.20;99.90;;;;;;5009430;28;20568;-84
2022/11/29 02:49:35;;;;;;;21.67;12.90;;;10.20;99.90;;;;;;5009260;28;20481;-84
2022/11/29 02:52:07;;;;;;;27.53;14.40;;;10.30;99.90;;;;;;5005547;28;20542;-84
2022/11/29 02:54:38;;;;;;;22.43;12.50;;;10.30;99.90;;;;;;4992214;28;20518;-84
2022/11/29 02:57:14;;;;;;;35.63;16.33;;;10.30;99.90;;;;;;4990776;28;20906;-84
2022/11/29 02:59:50;;;;;;;28.00;13.70;;;10.30;99.90;;;;;;4992905;28;20549;-85
2022/11/29 03:02:24;;;;;;;26.43;13.57;;;10.30;99.90;;;;;;5000281;28;20529;-85
2022/11/29 03:05:01;;;;;;;25.10;13.57;;;10.30;99.90;;;;;;5013470;28;20472;-86
2022/11/29 03:07:38;;;;;;;27.47;14.00;;;10.30;99.90;;;;;;5013387;28;20549;-85
2022/11/29 03:10:11;;;;;;;29.60;13.10;;;10.40;99.90;;;;;;4994974;28;20524;-85
2022/11/29 03:12:41;;;;;;;20.60;11.13;;;10.30;99.90;;;;;;5013964;28;20499;-85
2022/11/29 03:15:21;;;;;;;25.80;13.13;;;10.30;99.90;;;;;;5007717;28;20542;-85
2022/11/29 03:18:00;;;;;;;27.07;13.60;;;10.40;99.90;;;;;;5002117;28;20569;-84
2022/11/29 03:20:38;;;;;;;24.80;12.40;;;10.30;99.90;;;;;;4995779;28;20444;-85
2022/11/29 03:23:18;;;;;;;25.50;13.53;;;10.30;99.90;;;;;;4996567;28;20522;-85
2022/11/29 03:25:52;;;;;;;26.40;13.47;;;10.20;99.90;;;;;;4981314;28;20475;-84
2022/11/29 03:28:21;;;;;;;29.20;12.67;;;10.20;99.90;;;;;;5002439;28;20485;-84
2022/11/29 03:30:53;;;;;;;23.07;12.60;;;10.20;99.90;;;;;;5018202;28;20517;-85
2022/11/29 03:33:27;;;;;;;26.50;11.83;;;10.20;99.90;;;;;;4994983;28;20509;-84
2022/11/29 03:36:01;;;;;;;19.60;9.93;;;10.20;99.90;;;;;;4989606;28;20566;-84
2022/11/29 03:38:38;;;;;;;22.07;11.03;;;10.20;99.90;;;;;;4993039;28;20573;-84
2022/11/29 03:41:17;;;;;;;21.87;11.20;;;10.20;99.90;;;;;;4990535;28;20541;-84
2022/11/29 03:43:51;;;;;;;27.87;12.93;;;10.20;99.90;;;;;;4998333;28;20473;-84
2022/11/29 03:46:25;;;;;;;19.20;10.17;;;10.10;99.90;;;;;;5000966;28;20502;-85
2022/11/29 03:48:56;;;;;;;21.17;9.40;;;10.10;99.90;;;;;;5007036;28;20493;-84
2022/11/29 03:51:32;;;;;;;16.20;10.20;;;10.20;99.90;;;;;;5021419;28;20437;-85
2022/11/29 03:54:03;;;;;;;19.10;10.10;;;10.20;99.90;;;;;;5009082;28;20540;-84
2022/11/29 03:56:32;;;;;;;22.00;9.73;;;10.20;99.90;;;;;;4996531;28;20493;-84
2022/11/29 03:59:12;;;;;;;17.23;10.17;;;10.20;99.90;;;;;;4996709;28;20518;-84
2022/11/29 04:02:17;;;;;;;23.67;10.50;;;10.20;99.90;;;;;;4992418;28;20461;-86
2022/11/29 04:05:30;;;;;;;18.50;9.80;;;10.30;99.90;;;;;;4985954;28;20510;-83
2022/11/29 04:08:42;;;;;;;24.07;9.60;;;10.20;99.90;;;;;;4976645;28;20549;-85
2022/11/29 04:11:34;;;;;;;36.30;14.43;;;10.20;99.90;;;;;;5001059;28;20514;-83
2022/11/29 04:14:34;;;;;;;20.50;11.73;;;10.10;99.90;;;;;;4979612;28;21126;-82
2022/11/29 04:17:41;;;;;;;20.80;11.87;;;10.00;99.90;;;;;;4967125;28;20482;-85
2022/11/29 04:20:52;;;;;;;32.77;14.20;;;10.10;99.90;;;;;;4964036;28;20446;-85
2022/11/29 04:23:53;;;;;;;22.63;10.30;;;10.00;99.90;;;;;;4967387;28;20531;-85
2022/11/29 04:27:01;;;;;;;24.73;13.27;;;10.00;99.90;;;;;;4990450;28;20473;-86
2022/11/29 04:29:46;;;;;;;27.93;12.57;;;10.00;99.90;;;;;;4996648;28;20535;-83
2022/11/29 04:32:50;;;;;;;25.60;12.70;;;10.00;99.90;;;;;;4979845;28;20460;-85
2022/11/29 04:35:36;;;;;;;28.43;12.30;;;9.90;99.90;;;;;;4979351;28;20449;-85
2022/11/29 04:38:40;;;;;;;32.13;13.60;;;10.00;99.90;;;;;;4978231;28;20584;-84
2022/11/29 04:41:46;;;;;;;27.60;13.70;;;10.00;99.90;;;;;;4978024;28;20457;-82
2022/11/29 04:44:36;;;;;;;27.53;13.10;;;10.00;99.90;;;;;;4979610;28;20446;-85
2022/11/29 04:47:26;;;;;;;28.63;14.50;;;10.10;99.90;;;;;;4992285;28;20560;-83
2022/11/29 04:50:08;;;;;;;34.73;15.40;;;10.10;99.90;;;;;;4984919;28;20454;-83
2022/11/29 04:52:58;;;;;;;28.73;13.97;;;10.10;99.90;;;;;;4980626;28;20449;-83
2022/11/29 04:55:36;;;;;;;33.27;14.50;;;10.10;99.90;;;;;;4976930;28;20830;-83
2022/11/29 04:58:13;;;;;;;33.77;14.57;;;10.10;99.90;;;;;;4981701;28;20486;-84
2022/11/29 05:00:47;;;;;;;30.20;14.83;;;10.10;99.90;;;;;;4985550;28;20457;-84
2022/11/29 05:03:21;;;;;;;34.03;15.10;;;10.10;99.90;;;;;;4976517;28;20451;-83
2022/11/29 05:06:09;;;;;;;32.87;13.30;;;10.10;99.90;;;;;;4976665;28;20481;-84
2022/11/29 05:11:18;;;;;;;35.23;15.87;;;10.00;99.90;;;;;;5012684;22;20887;-82
2022/11/29 05:13:58;;;;;;;27.30;13.60;;;9.90;99.90;;;;;;4995580;28;20846;-81
2022/11/29 05:16:46;;;;;;;25.03;11.97;;;9.80;99.90;;;;;;4994224;28;20457;-79
2022/11/29 05:19:43;;;;;;;29.00;12.60;;;9.90;99.90;;;;;;4995489;28;20493;-81
2022/11/29 05:22:31;;;;;;;25.60;14.30;;;9.90;99.90;;;;;;4988359;28;20966;-81
2022/11/29 05:25:16;;;;;;;29.47;13.83;;;10.00;99.90;;;;;;4986576;28;20477;-80
2022/11/29 05:27:47;;;;;;;27.70;14.60;;;9.90;99.90;;;;;;5004339;28;20529;-80
2022/11/29 05:30:18;;;;;;;31.97;14.47;;;9.90;99.90;;;;;;5007827;28;20489;-81
2022/11/29 05:32:56;;;;;;;24.07;13.77;;;10.00;99.90;;;;;;5019514;28;21024;-83
2022/11/29 05:35:52;;;;;;;25.20;13.83;;;10.00;99.90;;;;;;5018144;28;20451;-82
2022/11/29 05:38:41;;;;;;;26.50;13.87;;;10.00;99.90;;;;;;5018361;28;20492;-82
2022/11/29 05:41:23;;;;;;;31.33;15.40;;;10.00;99.90;;;;;;5014405;28;20556;-85
2022/11/29 05:44:01;;;;;;;28.87;15.83;;;10.00;99.90;;;;;;4999017;28;20545;-83
2022/11/29 05:46:35;;;;;;;30.10;14.33;;;10.00;99.90;;;;;;4998086;28;20533;-82
2022/11/29 05:49:14;;;;;;;25.93;14.07;;;10.00;99.90;;;;;;4998217;28;20458;-80
2022/11/29 05:51:46;;;;;;;24.33;13.00;;;10.00;99.90;;;;;;4997579;28;20875;-82
2022/11/29 05:54:27;;;;;;;27.17;13.67;;;10.00;99.90;;;;;;4998304;28;20449;-80
2022/11/29 05:57:05;;;;;;;31.20;14.47;;;10.00;99.90;;;;;;4997105;28;20469;-83
2022/11/29 05:59:36;;;;;;;41.90;17.80;;;10.00;99.90;;;;;;4997244;28;20604;-83
2022/11/29 06:02:15;;;;;;;30.00;15.37;;;10.00;99.90;;;;;;4996618;28;20527;-79
2022/11/29 06:04:58;;;;;;;31.20;16.00;;;10.00;99.90;;;;;;4997160;28;20449;-82
2022/11/29 06:07:31;;;;;;;27.47;14.40;;;10.00;99.90;;;;;;4997189;28;20489;-82
2022/11/29 06:10:02;;;;;;;28.60;13.83;;;10.00;99.90;;;;;;4997428;28;20478;-82
2022/11/29 06:12:33;;;;;;;26.07;14.20;;;10.00;99.90;;;;;;4996191;28;20515;-84
2022/11/29 06:15:33;;;;;;;33.47;15.87;;;10.00;99.90;;;;;;4997747;28;20466;-81
2022/11/29 06:18:17;;;;;;;31.83;14.23;;;10.00;99.90;;;;;;4999685;28;20552;-81
2022/11/29 06:21:08;;;;;;;29.47;14.00;;;10.00;99.90;;;;;;5017135;28;20486;-83
2022/11/29 06:24:05;;;;;;;30.10;15.00;;;10.00;99.90;;;;;;5017444;28;20461;-81
2022/11/29 06:26:59;;;;;;;28.67;15.57;;;10.00;99.90;;;;;;5016871;28;20456;-82
2022/11/29 06:29:32;;;;;;;26.10;14.80;;;10.00;99.90;;;;;;5017146;28;20467;-82
2022/11/29 06:32:07;;;;;;;32.90;14.70;;;10.00;99.90;;;;;;5000215;28;20449;-81
2022/11/29 06:34:42;;;;;;;29.77;13.80;;;10.00;99.90;;;;;;4993886;28;20471;-81
2022/11/29 06:37:15;;;;;;;42.33;14.33;;;9.90;99.90;;;;;;4992715;28;20476;-83
2022/11/29 06:39:42;;;;;;;36.00;15.20;;;9.80;99.90;;;;;;4997612;28;20497;-81
2022/11/29 06:42:09;;;;;;;26.33;13.10;;;9.70;99.90;;;;;;4997743;28;20460;-83
2022/11/29 06:44:36;;;;;;;29.33;15.57;;;9.70;99.90;;;;;;4998216;28;21106;-80
2022/11/29 06:47:07;;;;;;;28.00;13.97;;;9.70;99.90;;;;;;4995580;28;20461;-80
2022/11/29 06:49:39;;;;;;;36.37;16.20;;;9.60;99.90;;;;;;4995098;28;20469;-80
2022/11/29 06:52:17;;;;;;;29.17;13.40;;;9.60;99.90;;;;;;4996071;28;20454;-80
2022/11/29 06:55:00;;;;;;;37.30;14.70;;;9.60;99.90;;;;;;4998732;28;20462;-82
2022/11/29 06:57:41;;;;;;;30.53;14.93;;;9.50;99.90;;;;;;4993122;28;20457;-82
2022/11/29 07:00:16;;;;;;;38.13;16.27;;;9.60;99.90;;;;;;4998604;28;20931;-82
2022/11/29 07:03:22;;;;;;;28.13;13.43;;;9.60;99.90;;;;;;4993404;28;21131;-79
2022/11/29 07:05:53;;;;;;;27.23;12.60;;;9.60;99.90;;;;;;4937506;29;20545;-79
2022/11/29 07:08:22;;;;;;;27.67;11.90;;;9.50;99.90;;;;;;4983740;28;20453;-80
2022/11/29 07:10:52;;;;;;;35.60;13.90;;;9.60;99.90;;;;;;4994185;28;20542;-80
2022/11/29 07:13:20;;;;;;;27.00;12.10;;;9.60;99.90;;;;;;4997162;28;20459;-80
2022/11/29 07:15:57;;;;;;;25.10;12.57;;;9.50;99.90;;;;;;4997000;28;20451;-80
2022/11/29 07:18:30;;;;;;;26.13;12.53;;;9.50;99.90;;;;;;4996641;28;20882;-80
2022/11/29 07:21:11;;;;;;;21.73;12.00;;;9.50;99.90;;;;;;5001755;28;20537;-82
2022/11/29 07:23:45;;;;;;;37.53;13.20;;;9.60;99.90;;;;;;5006129;28;20481;-83
2022/11/29 07:26:21;;;;;;;23.73;13.77;;;9.60;99.90;;;;;;5006127;28;20533;-82
2022/11/29 07:29:02;;;;;;;33.87;13.60;;;9.60;99.90;;;;;;5002859;28;20471;-81
2022/11/29 07:31:41;;;;;;;23.23;12.10;;;9.60;99.90;;;;;;5000229;28;20909;-81
2022/11/29 07:34:13;;;;;;;29.97;13.67;;;9.60;99.90;;;;;;5002318;28;20593;-82
2022/11/29 07:36:51;;;;;;;22.97;11.10;;;9.60;99.90;;;;;;5005051;28;20457;-82
2022/11/29 07:39:30;;;;;;;30.77;13.33;;;9.60;99.90;;;;;;5012313;28;20503;-84
2022/11/29 07:42:02;;;;;;;25.27;12.37;;;9.70;99.90;;;;;;5006046;28;20543;-83
2022/11/29 07:44:35;;;;;;;22.93;11.20;;;9.70;99.90;;;;;;5001633;28;20930;-83
2022/11/29 07:47:02;;;;;;;26.87;11.63;;;9.70;99.90;;;;;;5002403;28;20449;-82
2022/11/29 07:49:29;;;;;;;26.20;11.70;;;9.70;99.90;;;;;;5001400;28;20487;-83
2022/11/29 07:51:57;;;;;;;22.87;10.97;;;9.70;99.90;;;;;;5003026;28;20462;-83
2022/11/29 07:54:24;;;;;;;34.27;11.70;;;9.70;99.90;;;;;;5000094;28;20442;-80
2022/11/29 07:56:51;;;;;;;26.50;12.60;;;9.80;99.90;;;;;;4999302;28;20457;-83
2022/11/29 07:59:18;;;;;;;21.57;11.83;;;9.80;99.90;;;;;;5006883;28;20508;-82
2022/11/29 08:01:45;;;;;;;21.17;12.23;;;9.80;99.90;;;;;;4998115;28;20495;-82
2022/11/29 08:04:12;;;;;;;27.20;13.97;;;9.80;99.90;;;;;;4998540;28;20457;-80
2022/11/29 08:06:39;;;;;;;25.40;13.63;;;9.80;99.90;;;;;;5001684;28;20456;-84
2022/11/29 08:09:08;;;;;;;29.33;14.23;;;9.80;99.90;;;;;;4996227;28;20479;-81
2022/11/29 08:11:34;;;;;;;29.00;13.70;;;9.90;99.90;;;;;;4995703;28;20517;-82
2022/11/29 08:14:05;;;;;;;25.53;13.63;;;9.80;99.90;;;;;;4991033;28;20553;-79
2022/11/29 08:16:32;;;;;;;24.57;11.60;;;9.90;99.90;;;;;;4992515;28;20536;-82
2022/11/29 08:18:59;;;;;;;27.50;12.67;;;9.90;99.90;;;;;;4996960;28;20489;-80
2022/11/29 08:21:26;;;;;;;25.23;13.67;;;10.00;99.90;;;;;;4997533;28;20458;-83
2022/11/29 08:23:53;;;;;;;32.50;13.50;;;10.00;99.90;;;;;;4997834;28;20512;-82
2022/11/29 08:26:21;;;;;;;25.20;13.77;;;10.00;99.90;;;;;;4998019;28;20458;-81
2022/11/29 08:28:51;;;;;;;26.67;13.33;;;10.00;99.90;;;;;;4994701;28;20965;-83
2022/11/29 08:31:19;;;;;;;30.40;15.50;;;10.10;99.90;;;;;;4985336;28;20454;-82
2022/11/29 08:33:45;;;;;;;29.73;13.93;;;10.10;99.90;;;;;;4992036;28;20502;-81
2022/11/29 08:36:14;;;;;;;31.93;16.10;;;10.10;99.90;;;;;;4996665;28;20543;-83
2022/11/29 08:38:40;;;;;;;25.30;14.60;;;10.20;99.90;;;;;;4994510;28;20472;-83
2022/11/29 08:41:09;;;;;;;32.40;15.70;;;10.20;99.90;;;;;;4996656;28;20496;-80
2022/11/29 08:43:37;;;;;;;30.33;15.10;;;10.20;99.90;;;;;;4997617;28;20455;-80
2022/11/29 08:46:04;;;;;;;34.10;14.80;;;10.30;99.90;;;;;;4996848;28;20453;-82
2022/11/29 08:48:31;;;;;;;28.93;16.03;;;10.30;99.90;;;;;;4996632;28;20807;-81
2022/11/29 08:50:58;;;;;;;36.10;15.90;;;10.40;99.90;;;;;;4995509;28;20468;-82
2022/11/29 08:53:43;;;;;;;30.67;15.10;;;10.30;99.90;;;;;;5003733;28;20544;-83
2022/11/29 08:56:12;;;;;;;32.33;15.67;;;10.40;99.90;;;;;;4996506;28;20445;-82
2022/11/29 08:58:41;;;;;;;30.47;14.90;;;10.40;99.90;;;;;;4995763;28;20484;-81
2022/11/29 09:01:13;;;;;;;31.83;14.80;;;10.40;99.90;;;;;;4996821;28;20927;-82
2022/11/29 09:06:25;;;;;;;23.83;12.90;;;10.40;99.90;;;;;;4996255;28;20489;-81
2022/11/29 09:08:55;;;;;;;25.20;12.80;;;10.50;99.90;;;;;;4995709;28;20453;-81
2022/11/29 09:11:23;;;;;;;31.47;15.23;;;10.60;99.90;;;;;;4996327;28;20565;-81
2022/11/29 09:13:54;;;;;;;25.80;12.57;;;10.60;99.90;;;;;;4996556;28;20445;-82
2022/11/29 09:16:24;;;;;;;24.33;12.87;;;10.60;99.90;;;;;;4996304;28;20548;-82
2022/11/29 09:18:50;;;;;;;29.13;13.67;;;10.70;99.90;;;;;;4995259;28;20521;-81
2022/11/29 09:21:18;;;;;;;30.30;13.50;;;10.70;99.90;;;;;;4995651;28;20461;-82
2022/11/29 09:23:45;;;;;;;27.17;12.97;;;10.70;99.90;;;;;;4995497;28;20458;-81
2022/11/29 09:26:17;;;;;;;34.13;14.60;;;10.70;99.90;;;;;;4995628;28;20458;-82
2022/11/29 09:28:43;;;;;;;32.07;14.40;;;10.70;99.90;;;;;;4995094;28;20466;-82
2022/11/29 09:31:14;;;;;;;28.90;14.80;;;10.70;99.90;;;;;;4995326;28;20470;-81
2022/11/29 09:33:41;;;;;;;32.40;15.50;;;10.70;99.90;;;;;;4996411;28;20457;-82
2022/11/29 09:36:10;;;;;;;42.30;16.40;;;10.70;99.90;;;;;;4995844;28;20449;-81
2022/11/29 09:38:38;;;;;;;34.17;16.30;;;10.50;99.90;;;;;;4996480;28;20543;-82
2022/11/29 09:41:17;;;;;;;26.53;13.07;;;10.50;99.90;;;;;;4994740;28;21084;-81
2022/11/29 09:43:54;;;;;;;35.93;14.53;;;10.40;99.90;;;;;;4996714;28;20536;-81
2022/11/29 09:46:34;;;;;;;30.50;13.57;;;10.40;99.90;;;;;;4997053;28;20464;-81
2022/11/29 09:49:20;;;;;;;27.03;14.20;;;10.40;99.90;;;;;;4995486;28;20471;-85
2022/11/29 09:51:53;;;;;;;32.47;13.93;;;10.50;99.90;;;;;;4996358;28;20464;-82
2022/11/29 09:54:29;;;;;;;25.00;12.60;;;10.40;99.90;;;;;;4996704;28;20496;-85
2022/11/29 09:56:57;;;;;;;35.13;13.70;;;10.40;99.90;;;;;;4997789;28;20908;-84
2022/11/29 09:59:28;;;;;;;32.80;12.80;;;10.40;99.90;;;;;;4996808;28;20489;-83
2022/11/29 10:02:03;;;;;;;31.30;13.47;;;10.40;99.90;;;;;;4997415;28;20488;-82
2022/11/29 10:04:36;;;;;;;33.40;14.17;;;10.30;99.90;;;;;;4996678;28;20460;-84
2022/11/29 10:07:07;;;;;;;40.43;18.90;;;10.40;99.90;;;;;;4997509;28;20464;-83
2022/11/29 10:09:38;;;;;;;41.77;15.37;;;10.40;99.90;;;;;;4995904;28;20533;-82
2022/11/29 10:12:14;;;;;;;29.67;12.90;;;10.40;99.90;;;;;;4997925;28;20485;-84
2022/11/29 10:14:47;;;;;;;30.27;13.70;;;10.40;99.90;;;;;;4997479;28;20591;-84
2022/11/29 10:17:26;;;;;;;34.60;13.87;;;10.40;99.90;;;;;;4997308;28;20460;-83
2022/11/29 10:19:57;;;;;;;27.00;14.23;;;10.40;99.90;;;;;;4997401;28;20500;-83
2022/11/29 10:22:31;;;;;;;33.40;15.00;;;10.30;99.90;;;;;;4997112;28;20454;-82
2022/11/29 10:25:01;;;;;;;32.67;13.40;;;10.20;99.90;;;;;;4997299;28;20501;-83
2022/11/29 10:27:29;;;;;;;30.37;12.63;;;10.30;99.90;;;;;;4997718;28;20465;-83
2022/11/29 10:29:59;;;;;;;32.60;13.80;;;10.30;99.90;;;;;;4996820;28;20482;-84
2022/11/29 10:32:31;;;;;;;28.90;12.97;;;10.30;99.90;;;;;;4996390;28;20457;-82
2022/11/29 10:34:59;;;;;;;28.97;13.83;;;10.30;99.90;;;;;;4998009;28;20462;-83
2022/11/29 10:37:31;;;;;;;45.50;16.47;;;10.40;99.90;;;;;;4999230;28;20489;-81
2022/11/29 10:40:03;;;;;;;36.20;14.80;;;10.40;99.90;;;;;;5000253;28;20544;-82
2022/11/29 10:45:17;;;;;;;30.00;13.23;;;10.50;99.90;;;;;;4999445;28;20584;-81
2022/11/29 10:47:48;;;;;;;39.80;17.30;;;10.60;99.90;;;;;;4998339;28;20457;-82
2022/11/29 10:50:19;;;;;;;38.53;14.70;;;10.50;99.90;;;;;;4998218;28;20482;-82
2022/11/29 10:52:46;;;;;;;39.27;15.90;;;10.50;99.90;;;;;;4998082;28;20454;-81
2022/11/29 10:55:15;;;;;;;35.10;16.47;;;10.60;99.90;;;;;;4998552;28;20454;-83
2022/11/29 10:58:07;;;;;;;32.70;14.43;;;10.60;99.90;;;;;;4998032;28;20461;-81
2022/11/29 11:00:47;;;;;;;34.80;16.27;;;10.60;99.90;;;;;;4998013;28;20523;-82
2022/11/29 11:03:23;;;;;;;31.83;14.80;;;10.60;99.90;;;;;;4998665;28;20493;-80
2022/11/29 11:06:15;;;;;;;34.50;16.70;;;10.60;99.90;;;;;;5001737;28;20463;-81
2022/11/29 11:08:44;;;;;;;43.13;16.50;;;10.60;99.90;;;;;;4997657;28;20842;-82
2022/11/29 11:11:13;;;;;;;33.97;14.97;;;10.60;99.90;;;;;;5034532;23;20563;-79
2022/11/29 11:13:40;;;;;;;35.23;15.70;;;10.60;99.90;;;;;;5016348;28;20452;-79
2022/11/29 11:16:10;;;;;;;32.53;14.83;;;10.60;99.90;;;;;;5016838;28;20867;-79
2022/11/29 11:18:38;;;;;;;34.27;19.00;;;10.70;99.90;;;;;;5016159;28;20452;-79
2022/11/29 11:21:10;;;;;;;39.87;18.77;;;10.70;99.90;;;;;;5026824;28;20503;-79
2022/11/29 11:23:42;;;;;;;32.43;17.80;;;10.70;99.90;;;;;;5035821;28;20451;-78
2022/11/29 11:26:12;;;;;;;38.53;18.33;;;10.60;99.90;;;;;;5035984;28;20455;-78
2022/11/29 11:28:42;;;;;;;47.60;19.70;;;10.60;99.90;;;;;;5035625;28;20459;-79
2022/11/29 11:31:11;;;;;;;48.40;21.33;;;10.60;99.90;;;;;;5035579;28;20472;-79
2022/11/29 11:33:40;;;;;;;44.37;19.87;;;10.50;99.90;;;;;;5035902;28;20483;-78
2022/11/29 11:36:12;;;;;;;55.73;22.60;;;10.50;99.90;;;;;;5035676;28;20539;-79
2022/11/29 11:38:40;;;;;;;52.90;26.67;;;10.60;99.90;;;;;;5035587;28;20456;-79
2022/11/29 11:41:18;;;;;;;67.10;27.50;;;10.60;99.90;;;;;;5035417;28;20500;-79
2022/11/29 11:43:50;;;;;;;60.30;25.53;;;10.60;99.90;;;;;;5035939;28;20443;-78
2022/11/29 11:46:17;;;;;;;65.03;26.70;;;10.60;99.90;;;;;;5035725;28;20838;-79
2022/11/29 11:48:46;;;;;;;54.37;27.40;;;10.60;99.90;;;;;;5033957;28;20452;-79
2022/11/29 11:51:25;;;;;;;53.20;25.70;;;10.60;99.90;;;;;;5035332;28;20855;-78
2022/11/29 11:53:56;;;;;;;71.33;28.77;;;10.60;99.90;;;;;;5035428;28;20444;-79
2022/11/29 11:56:26;;;;;;;63.30;26.27;;;10.40;99.90;;;;;;5035325;28;20825;-79
2022/11/29 11:58:55;;;;;;;62.60;26.27;;;10.50;99.90;;;;;;5035528;28;20956;-79
2022/11/29 12:01:26;;;;;;;59.13;27.43;;;10.60;99.90;;;;;;5035730;28;20501;-79
2022/11/29 12:04:01;;;;;;;59.20;25.40;;;10.70;99.90;;;;;;5035840;28;20460;-79
2022/11/29 12:06:43;;;;;;;53.73;25.77;;;10.70;99.90;;;;;;5035564;28;20464;-79
2022/11/29 12:09:18;;;;;;;65.27;24.17;;;10.70;99.90;;;;;;5034672;28;20440;-79
2022/11/29 12:11:53;;;;;;;55.10;24.43;;;10.60;99.90;;;;;;5035134;28;20490;-79
2022/11/29 12:14:28;;;;;;;58.17;24.17;;;10.60;99.90;;;;;;5047498;28;20452;-80
2022/11/29 12:17:07;;;;;;;55.20;22.37;;;10.50;99.90;;;;;;5055399;28;20461;-79
2022/11/29 12:19:43;;;;;;;54.77;23.23;;;10.50;99.90;;;;;;5055399;28;20472;-79
2022/11/29 12:22:16;;;;;;;53.73;23.17;;;10.30;99.90;;;;;;5055365;28;20839;-78
2022/11/29 12:24:53;;;;;;;53.13;24.40;;;10.30;99.90;;;;;;5055497;28;20454;-79
2022/11/29 12:27:20;;;;;;;47.80;20.67;;;10.20;99.90;;;;;;5055420;28;20559;-79
2022/11/29 12:29:47;;;;;;;48.63;22.50;;;10.30;99.90;;;;;;5046285;28;20543;-79
2022/11/29 12:32:46;;;;;;;49.10;22.40;;;10.40;99.90;;;;;;5039058;28;20544;-79
2022/11/29 12:35:35;;;;;;;47.20;21.70;;;10.40;99.90;;;;;;5054908;28;20547;-78
2022/11/29 12:38:12;;;;;;;48.33;21.70;;;10.40;99.90;;;;;;5034626;28;20452;-78
2022/11/29 12:40:49;;;;;;;47.00;23.90;;;10.30;99.90;;;;;;5034773;28;20502;-79
2022/11/29 12:43:28;;;;;;;54.70;25.50;;;10.40;99.90;;;;;;5034666;28;20978;-78
2022/11/29 12:46:03;;;;;;;65.03;28.17;;;10.30;99.90;;;;;;5034712;28;20456;-79
2022/11/29 12:48:39;;;;;;;56.47;24.70;;;10.30;99.90;;;;;;5033977;28;20955;-79
2022/11/29 12:51:16;;;;;;;58.07;24.17;;;10.30;99.90;;;;;;5034475;28;20476;-79
2022/11/29 12:53:55;;;;;;;75.57;27.53;;;10.40;99.90;;;;;;5034586;28;20448;-79
2022/11/29 12:56:27;;;;;;;52.53;25.70;;;10.40;99.90;;;;;;5034413;28;20461;-79
2022/11/29 12:59:04;;;;;;;63.60;26.03;;;10.40;99.90;;;;;;5034125;28;20997;-79
2022/11/29 13:01:41;;;;;;;55.23;24.13;;;10.50;99.90;;;;;;5034173;28;20480;-78
2022/11/29 13:04:21;;;;;;;53.67;25.07;;;10.50;99.90;;;;;;5034419;28;20459;-79
2022/11/29 13:06:56;;;;;;;59.53;24.40;;;10.40;99.90;;;;;;5034038;28;20848;-79
2022/11/29 13:10:02;;;;;;;62.30;25.23;;;10.50;99.90;;;;;;5034133;28;20459;-79
2022/11/29 13:12:35;;;;;;;45.80;22.47;;;10.50;99.90;;;;;;5014639;28;20810;-79
2022/11/29 13:15:06;;;;;;;53.33;24.30;;;10.60;99.90;;;;;;5014576;28;20453;-79
2022/11/29 13:17:39;;;;;;;51.73;23.73;;;10.60;99.90;;;;;;5014711;28;21017;-80